Location:
 IT 
 EN 
 FR 
 DE 
 ES 

Current weather

Datameteo.com Informazioni Meteo attuali
Milano / Linate, Italy
Alba: 4:39 AM UTC1
Tramonto: 8:13 PM UTC1
 Lat: 45.42N, Lon: 9.27E
ICAO Used: LIML
Realzeit wetter, Realtime weather, Metèo en temps reel, Dato en tiempo real, Akt, Upd,Mis a j, Act
Update: 2120 PM UTC+1 LUN LUG 04 2022
Quasi Sereno
Temp: 22°C
Feuchte/Humidity/Humiditè/Humedad': 78%
Wind-Wind-Vent-Viento: SSW 05 KTS /
Pressione-Pressure-Pression-Presìon: 1015 hPa
Tautemperatur-Dew Point-P. de Rosèe-Temp rocìo: 18°C
Wärmindex-Feels like-Index de Chaleur-Indice Calor: 22°C
Sicht-Visibility-Visibilitè-Visibilidad: N/D
Wind Chill-Refroidissement eolien-Indice Calor Viento (Wind Chill): N/D
Ho"chs,High,Max 14 hr: 34°C
Mindes,Low,Min 24 hr: 21°C


ORIGINAL METAR
LIML 042120Z 21005KT 190V250 CAVOK 22/18 Q1015 NOSIG




Elaborazione dati by Datameteo.com - Lrc Servizi srl Copyright ©, All rights reserved.
View the web version
©2010 Datameteo.com
weather mobile,mobile weather,meteo mobile,mobile meteo,meteo sul telefonino datameteo.com